Hlavní strana
METAR-TAF:

METAR-TAF

Letiště :

Letiště Singapur-Changi

Singapur, Singapur

zeměpisná šířka: 01-22N, zeměpisná délka: 103-59E, výška: 5 m

Aktuální stav počasí

Zpráva byla vytvořena před 22 minutami, v 23:00 UTC
vítr z různých směrů 2 kt
Teplota 26°C
Vlhkost vzduchu 89%
Tlak 1011 hPa
Viditelnost: 7000 m
Skoro jasno ve výšce 1800 ft
Oblačno až skoro zataženo ve výšce 30000 ft

METAR: WSSS 152300Z VRB02KT 7000 FEW018 BKN300 26/24 Q1011 NOSIG

Čas: 07:22 (23:22 UTC)

Předpověď počasí

Zpráva byla vytvořena před 6 hodinami a 22 minutami, v 17:00 UTC
Předpověď platná od 15 v 18 UTC do 17 v 00 UTC
Jižní vítr 7 kt
Viditelnost 10 km a více
Skoro jasno ve výšce 1200 ft, Cumulonimbus.
Oblačno až skoro zataženo ve výšce 1500 ft
Dočasný
od 16 v 04 UTC do 16 v 08 UTC
Viditelnost: 3000 m
Skoro jasno ve výšce 1200 ft, Cumulonimbus.
Oblačno až skoro zataženo ve výšce 1500 ft
bouřka, déšť

TAF: WSSS 151700Z 1518/1700 17007KT 9999 FEW012CB BKN015 TEMPO 1604/1608 3000 TSRA FEW012CB BKN015

Stav a předpovědi počasí z více než 4 000 letišť (zprávy METAR a TAF).

Červené a žluté tečky na mapě představují dostupné meteorologické stanice.

Když kurzor umístíte na tečku, zobrazí se název stanice.

Pak kliknutím zobrazíte stav a předpověď počasí.

Chcete-li změnit mapu, kliknutím na zelené tlačítko se znaménkem +mapu přiblížíte, kliknutím na zelené tlačítko se znaménkem – mapu oddálíte a kliknutím na zelené šipky přejdete na sousední mapy.


METAR-TAF: